Time;durP1;ratioP1;P1;durP2;ratioP2;P2;SDS_P1;SDS_P2;PMS_P1;PMS_P2;Temp;Humidity;BMP_temperature;BMP_pressure;BME280_temperature;BME280_humidity;BME280_pressure;Samples;Min_cycle;Max_cycle;Signal;HPM_P1;HPM_P2
2023/08/29 00:00:27;;;;;;;2.25;2.13;;;;;;;11.23;100.00;95755.34;5107448;28;20024;-68
2023/08/29 00:02:53;;;;;;;1.73;1.63;;;;;;;11.23;100.00;95747.44;5096483;28;20024;-67
2023/08/29 00:05:19;;;;;;;2.00;1.90;;;;;;;11.18;100.00;95748.69;5105470;28;20367;-67
2023/08/29 00:07:45;;;;;;;2.22;2.13;;;;;;;11.13;100.00;95750.09;5113283;28;20180;-67
2023/08/29 00:10:10;;;;;;;2.35;1.73;;;;;;;11.11;100.00;95747.59;5115091;28;20106;-67
2023/08/29 00:12:36;;;;;;;1.90;1.80;;;;;;;11.15;100.00;95743.69;5104742;28;20020;-67
2023/08/29 00:15:05;;;;;;;2.05;1.90;;;;;;;11.10;100.00;95751.22;5099252;28;20549;-67
2023/08/29 00:17:31;;;;;;;1.67;1.60;;;;;;;11.11;100.00;95742.31;5100412;28;20085;-68
2023/08/29 00:19:56;;;;;;;1.95;1.85;;;;;;;11.22;100.00;95745.78;5108402;28;20028;-67
2023/08/29 00:22:22;;;;;;;1.92;1.83;;;;;;;11.20;100.00;95742.44;5090825;28;20047;-68
2023/08/29 00:24:48;;;;;;;1.80;1.70;;;;;;;11.16;100.00;95744.53;5101502;28;20071;-67
2023/08/29 00:27:14;;;;;;;2.22;2.03;;;;;;;11.08;100.00;95750.53;5109579;27;20105;-67
2023/08/29 00:29:42;;;;;;;1.60;1.50;;;;;;;11.13;100.00;95761.47;5102756;27;20412;-67
2023/08/29 00:32:08;;;;;;;2.10;2.00;;;;;;;11.24;100.00;95767.53;5097493;28;20115;-68
2023/08/29 00:34:33;;;;;;;1.90;1.80;;;;;;;11.16;100.00;95773.53;5100315;28;20031;-68
2023/08/29 00:36:59;;;;;;;1.77;1.67;;;;;;;11.08;100.00;95782.13;5098474;28;20035;-68
2023/08/29 00:39:24;;;;;;;3.40;2.10;;;;;;;11.08;100.00;95778.69;5096546;28;20034;-67
2023/08/29 00:41:51;;;;;;;2.05;1.95;;;;;;;11.10;100.00;95792.53;5107617;27;20041;-68
2023/08/29 00:44:16;;;;;;;1.98;1.88;;;;;;;11.01;100.00;95781.06;5104295;28;20023;-67
2023/08/29 00:46:44;;;;;;;1.80;1.70;;;;;;;10.99;100.00;95793.53;5098281;27;20024;-68
2023/08/29 00:49:11;;;;;;;1.52;1.52;;;;;;;11.00;100.00;95795.22;5110785;27;20110;-68
2023/08/29 00:51:37;;;;;;;2.05;1.92;;;;;;;11.03;100.00;95800.19;5098663;28;20028;-68
2023/08/29 00:54:03;;;;;;;2.05;1.95;;;;;;;10.96;100.00;95804.38;5099714;27;20031;-68
2023/08/29 00:56:31;;;;;;;2.28;1.73;;;;;;;10.93;100.00;95809.88;5098634;28;20031;-68
2023/08/29 00:58:56;;;;;;;2.05;1.95;;;;;;;10.86;100.00;95805.19;5103727;28;20024;-68
2023/08/29 01:01:22;;;;;;;1.98;1.80;;;;;;;10.94;100.00;95803.66;5102810;28;20030;-68
2023/08/29 01:03:47;;;;;;;1.85;1.75;;;;;;;11.04;100.00;95796.56;5102066;28;20077;-68
2023/08/29 01:06:13;;;;;;;2.08;1.98;;;;;;;10.98;100.00;95797.16;5099120;28;20053;-68
2023/08/29 01:08:40;;;;;;;1.80;1.70;;;;;;;10.96;100.00;95804.38;5103182;28;20084;-68
2023/08/29 01:11:42;;;;;;;1.90;1.80;;;;;;;10.93;100.00;95809.88;5096899;27;20460;-68
2023/08/29 01:14:32;;;;;;;2.70;2.15;;;;;;;10.91;100.00;95803.94;5100391;28;20459;-68
2023/08/29 01:17:06;;;;;;;2.08;1.85;;;;;;;10.93;100.00;95805.47;5102741;28;20039;-68
2023/08/29 01:19:33;;;;;;;2.20;2.00;;;;;;;10.92;100.00;95818.78;5099192;28;20042;-68
2023/08/29 01:22:21;;;;;;;1.80;1.70;;;;;;;10.95;100.00;95810.59;5105714;28;20492;-68
2023/08/29 01:25:25;;;;;;;2.03;1.92;;;;;;;10.93;100.00;95805.47;5113691;28;20020;-68
2023/08/29 01:27:51;;;;;;;1.90;1.80;;;;;;;10.94;100.00;95811.56;5102414;28;20525;-68
2023/08/29 01:30:17;;;;;;;1.65;1.55;;;;;;;10.96;100.00;95812.28;5107609;27;20066;-68
2023/08/29 01:32:44;;;;;;;2.72;1.70;;;;;;;11.02;100.00;95816.97;5102359;28;20024;-68
2023/08/29 01:35:13;;;;;;;1.75;1.70;;;;;;;11.04;100.00;95812.38;5104617;28;20020;-69
2023/08/29 01:37:38;;;;;;;2.00;1.80;;;;;;;11.10;100.00;95814.44;5094348;28;20024;-68
2023/08/29 01:40:06;;;;;;;2.10;1.90;;;;;;;11.14;100.00;95823.72;5104099;28;20059;-68
2023/08/29 01:42:31;;;;;;;2.08;1.88;;;;;;;11.11;100.00;95831.91;5111922;27;20028;-68
2023/08/29 01:44:57;;;;;;;2.03;1.92;;;;;;;11.07;100.00;95827.91;5104231;28;20032;-68
2023/08/29 01:47:22;;;;;;;2.10;2.00;;;;;;;11.13;100.00;95815.97;5101695;28;20070;-68
2023/08/29 01:49:50;;;;;;;1.88;1.77;;;;;;;11.08;100.00;95815.56;5108054;28;20076;-69
2023/08/29 01:52:15;;;;;;;1.73;1.73;;;;;;;11.11;100.00;95815.28;5101826;28;20500;-68
2023/08/29 01:54:41;;;;;;;1.98;1.80;;;;;;;11.11;100.00;95805.56;5103465;28;20500;-68
2023/08/29 01:57:09;;;;;;;1.98;1.88;;;;;;;11.14;100.00;95810.53;5102168;28;20024;-68
2023/08/29 01:59:35;;;;;;;2.05;1.85;;;;;;;11.12;100.00;95804.59;5098682;28;20114;-68
2023/08/29 02:02:02;;;;;;;2.10;2.00;;;;;;;11.12;100.00;95801.13;5103807;28;20020;-68
2023/08/29 02:04:30;;;;;;;1.58;1.48;;;;;;;11.17;100.00;95805.00;5105643;28;20028;-68
2023/08/29 02:06:56;;;;;;;1.95;1.75;;;;;;;11.24;100.00;95804.44;5104382;28;20024;-67
2023/08/29 02:09:21;;;;;;;1.90;1.80;;;;;;;11.21;100.00;95802.09;5106482;28;20028;-68
2023/08/29 02:11:46;;;;;;;1.70;1.60;;;;;;;11.15;100.00;95804.28;5095298;28;20038;-68
2023/08/29 02:14:12;;;;;;;1.80;1.70;;;;;;;11.20;100.00;95797.78;5098188;28;20395;-68
2023/08/29 02:16:38;;;;;;;1.77;1.67;;;;;;;11.20;100.00;95803.88;5095546;28;20039;-68
2023/08/29 02:19:04;;;;;;;2.25;1.80;;;;;;;11.29;100.00;95804.81;5099928;28;20110;-68
2023/08/29 02:21:29;;;;;;;1.48;1.48;;;;;;;11.25;100.00;95804.28;5093947;28;20062;-68
2023/08/29 02:23:55;;;;;;;1.70;1.60;;;;;;;11.22;100.00;95806.38;5096034;28;20060;-68
2023/08/29 02:26:20;;;;;;;1.67;1.58;;;;;;;11.14;100.00;95802.63;5104925;28;20072;-67
2023/08/29 02:28:46;;;;;;;1.55;1.55;;;;;;;11.11;100.00;95808.19;5104933;27;20045;-68
2023/08/29 02:31:13;;;;;;;1.90;1.67;;;;;;;11.09;100.00;95809.34;5078762;28;20048;-68
2023/08/29 02:33:38;;;;;;;1.90;1.80;;;;;;;11.02;100.00;95799.34;5090491;28;20119;-68
2023/08/29 02:36:04;;;;;;;1.75;1.65;;;;;;;10.99;100.00;95798.81;5109004;28;20106;-68
2023/08/29 02:38:30;;;;;;;1.70;1.60;;;;;;;11.00;100.00;95795.22;5109131;28;20476;-68
2023/08/29 02:40:56;;;;;;;1.80;1.70;;;;;;;11.02;100.00;95788.81;5107357;27;20155;-68
2023/08/29 02:43:21;;;;;;;1.80;1.70;;;;;;;11.06;100.00;95792.00;5104071;28;20055;-68
2023/08/29 02:45:49;;;;;;;1.60;1.50;;;;;;;11.16;100.00;95794.59;5105742;28;20081;-68
2023/08/29 02:48:15;;;;;;;1.77;1.67;;;;;;;11.13;100.00;95795.72;5095811;28;20022;-69
2023/08/29 02:50:42;;;;;;;1.42;1.40;;;;;;;11.15;100.00;95799.03;5102971;28;20045;-69
2023/08/29 02:53:07;;;;;;;1.90;1.80;;;;;;;11.12;100.00;95799.31;5105586;28;20088;-68
2023/08/29 02:55:32;;;;;;;2.42;1.65;;;;;;;11.16;100.00;95808.63;5096537;28;20032;-69
2023/08/29 02:57:58;;;;;;;1.60;1.60;;;;;;;11.23;100.00;95813.31;5096518;28;20031;-68
2023/08/29 03:00:24;;;;;;;1.65;1.65;;;;;;;11.15;100.00;95795.56;5098649;28;20437;-68
2023/08/29 03:02:49;;;;;;;1.75;1.67;;;;;;;11.18;100.00;95804.03;5099351;28;20016;-68
2023/08/29 03:05:15;;;;;;;1.67;1.58;;;;;;;11.18;100.00;95801.41;5102982;28;20023;-69
2023/08/29 03:07:40;;;;;;;1.80;1.70;;;;;;;11.17;100.00;95794.47;5108009;28;20038;-69
2023/08/29 03:10:06;;;;;;;1.50;1.50;;;;;;;11.13;100.00;95798.34;5107942;28;20027;-68
2023/08/29 03:12:32;;;;;;;1.50;1.50;;;;;;;11.02;100.00;95790.63;5100245;28;20040;-69
2023/08/29 03:14:57;;;;;;;1.52;1.42;;;;;;;11.09;100.00;95790.88;5096269;28;20032;-68
2023/08/29 03:17:22;;;;;;;1.80;1.70;;;;;;;11.10;100.00;95792.53;5097889;28;20057;-69
2023/08/29 03:19:50;;;;;;;1.73;1.63;;;;;;;11.09;100.00;95801.44;5095181;28;20036;-68
2023/08/29 03:22:15;;;;;;;1.40;1.40;;;;;;;11.08;100.00;95791.88;5096971;28;20208;-68
2023/08/29 03:24:45;;;;;;;1.63;1.63;;;;;;;11.14;100.00;95788.66;5094580;28;20052;-68
2023/08/29 03:27:10;;;;;;;4.22;1.50;;;;;;;11.04;100.00;95789.50;5107940;27;20058;-68
2023/08/29 03:29:36;;;;;;;1.65;1.58;;;;;;;11.06;100.00;95794.63;5095716;28;20067;-69
2023/08/29 03:32:01;;;;;;;1.65;1.55;;;;;;;11.10;100.00;95789.91;5086009;28;20027;-69
2023/08/29 03:34:26;;;;;;;1.50;1.40;;;;;;;11.13;100.00;95793.06;5105825;28;20020;-69
2023/08/29 03:36:52;;;;;;;1.70;1.60;;;;;;;11.16;100.00;95794.59;5096665;28;20054;-69
2023/08/29 03:39:18;;;;;;;1.50;1.40;;;;;;;11.19;100.00;95791.69;5097106;28;20122;-69
2023/08/29 03:41:43;;;;;;;1.27;1.27;;;;;;;11.25;100.00;95785.81;5110712;27;20020;-69
2023/08/29 03:44:09;;;;;;;1.70;1.60;;;;;;;11.21;100.00;95784.47;5100160;28;20453;-68
2023/08/29 03:46:34;;;;;;;1.67;1.60;;;;;;;11.08;100.00;95791.88;5105776;28;20016;-68
2023/08/29 03:48:59;;;;;;;1.85;1.52;;;;;;;11.10;100.00;95787.28;5102650;28;20027;-68
2023/08/29 03:51:25;;;;;;;1.70;1.60;;;;;;;11.06;100.00;95778.81;5094521;28;20062;-69
2023/08/29 03:53:50;;;;;;;1.40;1.40;;;;;;;11.10;100.00;95782.81;5100884;28;20029;-68
2023/08/29 03:56:18;;;;;;;1.60;1.50;;;;;;;11.12;100.00;95787.97;5103185;28;20026;-68
2023/08/29 03:58:45;;;;;;;1.50;1.50;;;;;;;11.04;100.00;95780.78;5101055;28;20032;-68
2023/08/29 04:01:11;;;;;;;3.00;1.70;;;;;;;11.03;100.00;95789.66;5102284;28;20040;-68
2023/08/29 04:03:37;;;;;;;1.60;1.60;;;;;;;11.03;100.00;95785.19;5097508;28;20024;-69
2023/08/29 04:06:03;;;;;;;1.60;1.50;;;;;;;11.11;100.00;95792.38;5099018;28;20024;-68
2023/08/29 04:08:29;;;;;;;1.60;1.50;;;;;;;11.08;100.00;95797.94;5108483;28;20024;-68
2023/08/29 04:10:54;;;;;;;1.33;1.30;;;;;;;11.01;100.00;95787.13;5095050;28;20036;-69
2023/08/29 04:13:20;;;;;;;1.30;1.30;;;;;;;11.15;100.00;95785.84;5092169;28;20558;-68
2023/08/29 04:15:45;;;;;;;1.88;1.77;;;;;;;11.08;100.00;95808.47;5093776;28;20031;-68
2023/08/29 04:18:11;;;;;;;1.63;1.48;;;;;;;11.02;100.00;95790.63;5097420;28;20028;-68
2023/08/29 04:20:37;;;;;;;1.63;1.33;;;;;;;10.91;100.00;95791.63;5099811;28;20088;-68
2023/08/29 04:23:03;;;;;;;1.60;1.60;;;;;;;10.99;100.00;95785.63;5093669;28;20481;-69
2023/08/29 04:25:34;;;;;;;1.85;1.75;;;;;;;10.97;100.00;95793.66;5096520;28;20051;-69
2023/08/29 04:28:00;;;;;;;1.55;1.55;;;;;;;11.03;100.00;95789.66;5098408;28;20032;-69
2023/08/29 04:30:25;;;;;;;1.90;1.80;;;;;;;11.11;100.00;95799.47;5096770;28;20683;-69
2023/08/29 04:32:51;;;;;;;1.60;1.60;;;;;;;10.97;100.00;95793.66;5093456;28;20024;-69
2023/08/29 04:35:17;;;;;;;1.90;1.80;;;;;;;10.94;100.00;95787.84;5106668;28;20016;-69
2023/08/29 04:37:48;;;;;;;1.80;1.70;;;;;;;10.97;100.00;95790.22;5098862;28;20020;-69
2023/08/29 04:40:18;;;;;;;1.73;1.63;;;;;;;10.91;100.00;95802.16;5098020;28;20031;-69
2023/08/29 04:42:47;;;;;;;1.88;1.77;;;;;;;10.84;100.00;95798.44;5103030;28;20032;-69
2023/08/29 04:45:13;;;;;;;1.92;1.83;;;;;;;10.85;100.00;95800.09;5109686;28;20016;-69
2023/08/29 04:47:38;;;;;;;1.65;1.60;;;;;;;10.92;100.00;95805.59;5102049;28;20027;-69
2023/08/29 04:50:05;;;;;;;1.70;1.50;;;;;;;10.95;100.00;95800.88;5097560;28;20573;-69
2023/08/29 04:52:30;;;;;;;2.00;1.90;;;;;;;10.99;100.00;95797.00;5095888;28;20093;-69
2023/08/29 04:54:56;;;;;;;1.55;1.45;;;;;;;10.99;100.00;95796.19;5096301;28;20023;-69
2023/08/29 04:57:22;;;;;;;1.63;1.52;;;;;;;10.92;100.00;95802.97;5109698;28;20288;-69
2023/08/29 04:59:48;;;;;;;1.75;1.67;;;;;;;10.92;100.00;95802.97;5096491;28;20131;-69
2023/08/29 05:02:14;;;;;;;1.50;1.50;;;;;;;10.97;100.00;95806.84;5100328;28;20113;-69
2023/08/29 05:04:42;;;;;;;2.25;1.83;;;;;;;10.93;100.00;95817.78;5098074;28;20416;-69
2023/08/29 05:07:07;;;;;;;1.70;1.60;;;;;;;10.88;100.00;95808.53;5103201;28;20039;-68
2023/08/29 05:09:33;;;;;;;1.40;1.35;;;;;;;10.86;100.00;95812.28;5100343;28;20033;-69
2023/08/29 05:11:58;;;;;;;1.65;1.55;;;;;;;10.97;100.00;95809.47;5095882;28;20032;-69
2023/08/29 05:14:24;;;;;;;1.98;1.88;;;;;;;10.98;100.00;95816.41;5112395;28;20030;-68
2023/08/29 05:16:49;;;;;;;1.77;1.52;;;;;;;10.94;100.00;95816.81;5095855;28;20103;-69
2023/08/29 05:19:14;;;;;;;1.60;1.50;;;;;;;10.94;100.00;95809.75;5112748;28;20031;-69
2023/08/29 05:21:40;;;;;;;1.42;1.42;;;;;;;11.01;100.00;95810.03;5107108;28;20024;-69
2023/08/29 05:24:06;;;;;;;1.85;1.75;;;;;;;11.06;100.00;95799.09;5096571;28;20028;-68
2023/08/29 05:26:31;;;;;;;1.60;1.60;;;;;;;11.10;100.00;95816.25;5096184;28;20392;-67
2023/08/29 05:28:56;;;;;;;1.75;1.65;;;;;;;11.11;100.00;95820.56;5080993;27;20020;-67
2023/08/29 05:31:22;;;;;;;1.73;1.63;;;;;;;11.07;100.00;95814.72;5101971;28;20416;-67
2023/08/29 05:33:47;;;;;;;2.28;1.50;;;;;;;11.05;100.00;95821.94;5099711;28;20495;-67
2023/08/29 05:36:13;;;;;;;1.75;1.58;;;;;;;11.04;100.00;95812.38;5098195;28;20461;-67
2023/08/29 05:38:38;;;;;;;1.95;1.60;;;;;;;11.10;100.00;95811.00;5111933;28;20038;-67
2023/08/29 05:41:04;;;;;;;1.90;1.77;;;;;;;11.10;100.00;95817.06;5105777;27;20027;-67
2023/08/29 05:43:29;;;;;;;1.35;1.35;;;;;;;11.17;100.00;95814.72;5120390;27;20125;-67
2023/08/29 05:45:55;;;;;;;1.92;1.73;;;;;;;11.12;100.00;95809.03;5106989;28;20629;-67
2023/08/29 05:48:21;;;;;;;1.90;1.80;;;;;;;11.20;100.00;95821.50;5098233;28;20071;-68
2023/08/29 05:50:50;;;;;;;1.92;1.83;;;;;;;11.18;100.00;95809.31;5115905;28;20039;-67
2023/08/29 05:53:19;;;;;;;1.98;1.52;;;;;;;11.16;100.00;95813.06;5099702;28;20024;-67
2023/08/29 05:55:45;;;;;;;1.80;1.70;;;;;;;11.16;100.00;95820.97;5113835;28;20586;-67
2023/08/29 05:58:11;;;;;;;1.63;1.52;;;;;;;11.22;100.00;95815.09;5098363;28;20032;-68
2023/08/29 06:00:37;;;;;;;1.73;1.63;;;;;;;11.15;100.00;95820.09;5096247;28;20023;-67
2023/08/29 06:03:04;;;;;;;1.70;1.60;;;;;;;11.15;100.00;95816.66;5107381;28;20028;-67
2023/08/29 06:05:32;;;;;;;1.77;1.67;;;;;;;11.24;100.00;95817.59;5099703;28;20126;-67
2023/08/29 06:08:00;;;;;;;1.60;1.50;;;;;;;11.22;100.00;95823.00;5102731;28;20024;-67
2023/08/29 06:10:26;;;;;;;2.85;1.60;;;;;;;11.16;100.00;95821.81;5087706;28;20188;-68
2023/08/29 06:12:51;;;;;;;1.40;1.30;;;;;;;11.28;100.00;95824.25;5103992;28;20065;-67
2023/08/29 06:15:17;;;;;;;1.70;1.60;;;;;;;11.24;100.00;95823.69;5101453;28;20024;-67
2023/08/29 06:17:42;;;;;;;1.67;1.58;;;;;;;11.23;100.00;95822.03;5098022;28;20571;-68
2023/08/29 06:20:09;;;;;;;1.70;1.60;;;;;;;11.27;100.00;95826.06;5094306;28;20035;-67
2023/08/29 06:22:34;;;;;;;2.58;1.52;;;;;;;11.27;100.00;95827.88;5095180;28;20016;-67
2023/08/29 06:25:00;;;;;;;1.67;1.58;;;;;;;11.24;100.00;95828.97;5095112;28;20027;-67
2023/08/29 06:27:25;;;;;;;1.83;1.40;;;;;;;11.24;100.00;95834.22;5101159;28;20040;-67
2023/08/29 06:29:51;;;;;;;1.45;1.42;;;;;;;11.33;100.00;95837.81;5101036;27;20140;-68
2023/08/29 06:32:16;;;;;;;1.80;1.70;;;;;;;11.26;100.00;95842.81;5094951;28;20031;-67
2023/08/29 06:34:41;;;;;;;1.65;1.55;;;;;;;11.25;100.00;95837.72;5094728;28;20039;-67
2023/08/29 06:37:07;;;;;;;1.80;1.70;;;;;;;11.17;100.00;95838.44;5094897;28;20054;-67
2023/08/29 06:39:32;;;;;;;2.85;1.60;;;;;;;11.19;100.00;95831.19;5102445;28;20113;-67
2023/08/29 06:41:58;;;;;;;1.88;1.60;;;;;;;11.21;100.00;95836.34;5111540;27;20020;-68
2023/08/29 06:44:23;;;;;;;1.55;1.45;;;;;;;11.24;100.00;95833.41;5100231;28;20032;-67
2023/08/29 06:46:49;;;;;;;2.58;1.45;;;;;;;11.28;100.00;95840.06;5093104;28;20115;-68
2023/08/29 06:49:15;;;;;;;1.50;1.50;;;;;;;11.35;100.00;95840.34;5094780;28;20020;-67
2023/08/29 06:51:41;;;;;;;1.60;1.60;;;;;;;11.41;100.00;95840.59;5093281;28;20063;-67
2023/08/29 06:54:06;;;;;;;1.50;1.50;;;;;;;11.46;100.00;95843.63;5106389;28;20067;-68
2023/08/29 06:56:32;;;;;;;1.70;1.60;;;;;;;11.51;100.00;95845.84;5101964;28;20028;-66
2023/08/29 06:58:58;;;;;;;1.45;1.40;;;;;;;11.52;100.00;95839.59;5075985;28;20040;-67
2023/08/29 07:01:24;;;;;;;1.60;1.50;;;;;;;11.59;100.00;95845.09;5093096;28;20502;-68
2023/08/29 07:03:49;;;;;;;1.45;1.45;;;;;;;11.62;100.00;95847.47;5102724;28;20141;-67
2023/08/29 07:06:15;;;;;;;1.60;1.60;;;;;;;11.64;100.00;95853.41;5094524;28;20024;-68
2023/08/29 07:08:40;;;;;;;1.70;1.60;;;;;;;11.58;100.00;95849.56;5103564;28;20040;-67
2023/08/29 07:11:06;;;;;;;1.58;1.52;;;;;;;11.58;100.00;95846.91;5096552;28;20975;-68
2023/08/29 07:13:32;;;;;;;2.28;1.73;;;;;;;11.61;100.00;95856.34;5097697;28;20073;-68
2023/08/29 07:15:58;;;;;;;1.40;1.30;;;;;;;11.64;100.00;95848.16;5088283;28;20028;-68
2023/08/29 07:18:24;;;;;;;1.92;1.83;;;;;;;11.63;100.00;95849.13;5085557;28;20055;-68
2023/08/29 07:20:49;;;;;;;1.50;1.40;;;;;;;11.64;100.00;95860.50;5096102;28;20036;-68
2023/08/29 07:23:15;;;;;;;1.55;1.50;;;;;;;11.61;100.00;95861.63;5101660;28;20027;-68
2023/08/29 07:25:43;;;;;;;1.40;1.30;;;;;;;11.64;100.00;95863.13;5105019;28;20024;-67
2023/08/29 07:28:15;;;;;;;1.83;1.73;;;;;;;11.68;100.00;95867.97;5110956;27;20032;-68
2023/08/29 07:30:45;;;;;;;1.52;1.42;;;;;;;11.72;100.00;95868.53;5108762;28;20051;-68
2023/08/29 07:33:12;;;;;;;1.42;1.42;;;;;;;11.81;100.00;95869.44;5100578;28;20039;-68
2023/08/29 07:35:39;;;;;;;1.60;1.60;;;;;;;11.85;100.00;95868.19;5101852;28;20122;-68
2023/08/29 07:38:04;;;;;;;3.17;1.70;;;;;;;11.94;100.00;95877.03;5102048;28;20028;-68
2023/08/29 07:40:30;;;;;;;1.58;1.48;;;;;;;11.96;100.00;95875.91;5095390;28;20027;-68
2023/08/29 07:42:55;;;;;;;1.90;1.80;;;;;;;12.01;100.00;95878.97;5101639;28;20061;-68
2023/08/29 07:45:21;;;;;;;1.83;1.73;;;;;;;12.07;100.00;95882.00;5106446;28;20024;-69
2023/08/29 07:47:46;;;;;;;1.70;1.60;;;;;;;12.14;100.00;95885.72;5113813;28;20055;-68
2023/08/29 07:50:12;;;;;;;1.52;1.30;;;;;;;12.16;100.00;95886.41;5095047;28;20024;-69
2023/08/29 07:52:37;;;;;;;1.60;1.50;;;;;;;12.19;100.00;95891.38;5093497;28;20024;-69
2023/08/29 07:55:04;;;;;;;1.50;1.50;;;;;;;12.16;100.00;95887.25;5093612;28;20027;-69
2023/08/29 07:57:30;;;;;;;1.85;1.58;;;;;;;12.17;100.00;95882.78;5092831;28;20051;-69
2023/08/29 07:59:55;;;;;;;2.40;1.40;;;;;;;12.24;100.00;95891.75;5092201;28;20028;-69
2023/08/29 08:02:20;;;;;;;2.58;1.67;;;;;;;12.25;100.00;95890.78;5095297;28;20458;-67
2023/08/29 08:04:46;;;;;;;1.58;1.48;;;;;;;12.30;100.00;95893.00;5094128;28;20400;-68
2023/08/29 08:07:11;;;;;;;1.75;1.48;;;;;;;12.44;100.00;95892.50;5094378;28;20104;-68
2023/08/29 08:09:37;;;;;;;1.70;1.60;;;;;;;12.49;100.00;95892.06;5094617;28;20104;-68
2023/08/29 08:12:03;;;;;;;1.60;1.50;;;;;;;12.49;100.00;95891.22;5107721;28;20035;-68
2023/08/29 08:14:28;;;;;;;1.63;1.52;;;;;;;12.56;100.00;95901.03;5098729;28;20038;-68
2023/08/29 08:16:54;;;;;;;1.65;1.27;;;;;;;12.72;100.00;95907.47;5094035;28;20089;-68
2023/08/29 08:19:19;;;;;;;2.00;1.33;;;;;;;12.75;100.00;95909.81;5103314;28;20628;-69
2023/08/29 08:21:45;;;;;;;1.20;1.20;;;;;;;12.71;100.00;95916.34;5104721;28;20431;-69
2023/08/29 08:24:10;;;;;;;1.85;1.50;;;;;;;12.74;100.00;95934.56;5109891;28;20032;-68
2023/08/29 08:26:36;;;;;;;2.15;1.40;;;;;;;12.75;100.00;95929.13;5110582;27;20464;-69
2023/08/29 08:29:03;;;;;;;1.23;1.20;;;;;;;12.87;100.00;95937.66;5086970;27;20029;-69
2023/08/29 08:31:29;;;;;;;1.27;1.27;;;;;;;12.97;100.00;95936.78;5098068;28;20024;-68
2023/08/29 08:33:56;;;;;;;1.20;1.15;;;;;;;13.02;100.00;95940.59;5097390;28;20028;-68
2023/08/29 08:36:21;;;;;;;2.20;1.25;;;;;;;13.05;100.00;95939.47;5103965;28;20018;-68
2023/08/29 08:38:47;;;;;;;1.38;1.27;;;;;;;13.05;100.00;95947.41;5101818;28;20028;-69
2023/08/29 08:41:14;;;;;;;1.40;1.30;;;;;;;13.01;100.00;95949.50;5106617;27;20079;-68
2023/08/29 08:43:42;;;;;;;1.38;1.30;;;;;;;12.86;100.00;95954.50;5106157;27;20609;-68
2023/08/29 08:46:09;;;;;;;1.75;1.60;;;;;;;12.82;100.00;95962.84;5103526;28;20028;-69
2023/08/29 08:48:36;;;;;;;1.63;1.52;;;;;;;12.82;100.00;95958.41;5099099;28;20024;-68
2023/08/29 08:51:04;;;;;;;1.60;1.50;;;;;;;12.83;100.00;95957.44;5096648;28;20589;-68
2023/08/29 08:53:30;;;;;;;1.98;1.60;;;;;;;12.78;100.00;95961.50;5097925;28;20016;-68
2023/08/29 08:55:56;;;;;;;5.15;1.60;;;;;;;12.81;100.00;95948.84;5096468;28;20038;-69
2023/08/29 08:58:21;;;;;;;1.27;1.17;;;;;;;12.89;100.00;95956.00;5096353;28;20023;-68
2023/08/29 09:00:47;;;;;;;1.60;1.45;;;;;;;12.96;100.00;95954.44;5096427;28;20020;-68
2023/08/29 09:03:16;;;;;;;2.45;1.80;;;;;;;13.08;100.00;95947.09;5095036;28;20020;-68
2023/08/29 09:05:42;;;;;;;1.85;1.50;;;;;;;13.24;100.00;95956.16;5096462;28;20058;-68
2023/08/29 09:08:08;;;;;;;1.50;1.40;;;;;;;13.37;100.00;95961.88;5105260;28;20711;-69
2023/08/29 09:10:38;;;;;;;1.50;1.42;;;;;;;13.49;100.00;95962.53;5096222;28;20030;-68
2023/08/29 09:13:03;;;;;;;2.55;1.40;;;;;;;13.67;100.00;95964.28;5095786;28;20023;-68
2023/08/29 09:15:29;;;;;;;2.67;1.40;;;;;;;13.77;100.00;95975.63;5107838;28;20023;-68
2023/08/29 09:17:54;;;;;;;1.48;1.45;;;;;;;13.89;100.00;95977.00;5095963;28;20058;-68
2023/08/29 09:20:22;;;;;;;1.38;1.27;;;;;;;13.88;100.00;95978.00;5096136;28;20071;-68
2023/08/29 09:22:48;;;;;;;1.45;1.35;;;;;;;13.94;100.00;95976.56;5093334;28;20024;-69
2023/08/29 09:25:13;;;;;;;1.52;1.33;;;;;;;13.88;100.00;95982.47;5102481;28;20028;-69
2023/08/29 09:27:40;;;;;;;1.35;1.25;;;;;;;13.85;100.00;95977.50;5102299;27;20032;-68
2023/08/29 09:30:13;;;;;;;2.08;1.45;;;;;;;13.86;100.00;95979.16;5095994;28;20043;-68
2023/08/29 09:32:50;;;;;;;1.77;1.48;;;;;;;13.82;100.00;95983.91;5096007;28;20031;-69
2023/08/29 09:35:19;;;;;;;2.20;1.30;;;;;;;13.92;100.00;95980.31;5095341;28;20031;-68
2023/08/29 09:38:03;;;;;;;1.42;1.42;;;;;;;14.09;100.00;95978.63;5102118;28;20036;-68
2023/08/29 09:40:28;;;;;;;1.67;1.58;;;;;;;14.22;100.00;95976.38;5094266;28;20042;-69
2023/08/29 09:42:55;;;;;;;1.65;1.38;;;;;;;14.27;100.00;95986.50;5113575;27;20502;-69
2023/08/29 09:45:21;;;;;;;2.10;1.40;;;;;;;14.15;100.00;95986.78;5114779;28;20024;-69
2023/08/29 09:47:46;;;;;;;1.80;1.70;;;;;;;14.08;100.00;95979.63;5102958;28;20034;-68
2023/08/29 09:50:12;;;;;;;2.13;1.92;;;;;;;13.96;100.00;95984.34;5108876;28;20034;-68
2023/08/29 09:52:39;;;;;;;1.60;1.50;;;;;;;13.93;100.00;95985.47;5094160;28;20024;-69
2023/08/29 09:55:08;;;;;;;2.80;1.40;;;;;;;13.88;100.00;95974.53;5097898;28;20024;-68
2023/08/29 09:57:35;;;;;;;1.35;1.25;;;;;;;13.86;100.00;95979.16;5095536;28;20020;-69
2023/08/29 10:00:02;;;;;;;3.38;1.40;;;;;;;13.90;100.00;95977.84;5106337;28;20047;-69
2023/08/29 10:02:30;;;;;;;2.67;1.42;;;;;;;14.02;100.00;95989.00;5095299;28;20023;-69
2023/08/29 10:05:05;;;;;;;1.45;1.30;;;;;;;14.05;100.00;95988.69;5096366;28;20029;-69
2023/08/29 10:07:40;;;;;;;1.23;1.23;;;;;;;13.93;100.00;95982.00;5104577;28;20023;-68
2023/08/29 10:10:10;;;;;;;1.40;1.40;;;;;;;13.84;100.00;95991.72;5104479;28;20032;-69
2023/08/29 10:12:36;;;;;;;1.40;1.40;;;;;;;13.69;100.00;95979.03;5105873;28;20031;-69
2023/08/29 10:15:04;;;;;;;1.23;1.13;;;;;;;13.61;100.00;95979.81;5093636;28;20065;-68
2023/08/29 10:17:34;;;;;;;1.42;1.33;;;;;;;13.54;100.00;95981.41;5093262;28;20024;-68
2023/08/29 10:20:04;;;;;;;1.50;1.40;;;;;;;13.52;100.00;95979.88;5094434;28;20103;-69
2023/08/29 10:22:30;;;;;;;1.30;1.30;;;;;;;13.52;100.00;95979.88;5095106;28;20546;-69
2023/08/29 10:24:58;;;;;;;1.80;1.70;;;;;;;13.49;100.00;95980.19;5094817;28;20024;-69
2023/08/29 10:27:24;;;;;;;1.40;1.30;;;;;;;13.46;100.00;95970.75;5113387;27;20015;-69
2023/08/29 10:29:49;;;;;;;1.60;1.50;;;;;;;13.43;100.00;95974.53;5093039;28;20070;-69
2023/08/29 10:32:15;;;;;;;2.20;1.40;;;;;;;13.38;100.00;95968.00;5104889;28;20035;-68
2023/08/29 10:34:41;;;;;;;3.10;1.30;;;;;;;13.27;100.00;95966.44;5093623;28;20023;-69
2023/08/29 10:37:19;;;;;;;2.00;1.20;;;;;;;13.21;100.00;95972.34;5092968;28;20031;-69
2023/08/29 10:39:44;;;;;;;1.20;1.20;;;;;;;13.20;100.00;95979.44;5094924;28;20103;-69
2023/08/29 10:42:13;;;;;;;1.30;1.30;;;;;;;13.17;100.00;95972.66;5110977;27;20063;-68
2023/08/29 10:44:41;;;;;;;1.42;1.30;;;;;;;13.15;100.00;95973.75;5106646;28;20195;-69
2023/08/29 10:47:28;;;;;;;1.73;1.58;;;;;;;13.16;100.00;95967.50;5093207;28;20020;-68
2023/08/29 10:49:58;;;;;;;1.75;1.30;;;;;;;13.18;100.00;95961.09;5096034;28;20027;-69
2023/08/29 10:52:23;;;;;;;1.67;1.33;;;;;;;13.19;100.00;95956.63;5114595;28;20023;-69
2023/08/29 10:55:02;;;;;;;1.48;1.38;;;;;;;13.20;100.00;95960.09;5099130;28;20047;-69
2023/08/29 10:57:28;;;;;;;1.35;1.25;;;;;;;13.24;100.00;95958.81;5104388;28;20027;-69
2023/08/29 10:59:57;;;;;;;2.35;1.40;;;;;;;13.35;100.00;95963.84;5094003;28;20047;-68
2023/08/29 11:02:30;;;;;;;1.48;1.38;;;;;;;13.51;100.00;95970.28;5096230;28;20031;-69
2023/08/29 11:05:04;;;;;;;1.50;1.40;;;;;;;13.60;100.00;95953.50;5094923;28;20031;-69
2023/08/29 11:07:32;;;;;;;1.37;1.30;;;;;;;13.69;100.00;95962.31;5103241;28;20031;-68
2023/08/29 11:10:22;;;;;;;2.08;1.20;;;;;;;13.81;100.00;95966.38;5104317;28;20274;-68
2023/08/29 11:13:10;;;;;;;4.35;1.40;;;;;;;14.08;100.00;95979.63;5100219;28;20077;-68
2023/08/29 11:16:05;;;;;;;1.50;1.40;;;;;;;14.60;100.00;95990.13;5093227;28;20058;-69
2023/08/29 11:18:32;;;;;;;1.27;1.25;;;;;;;15.41;100.00;95994.97;5092826;28;20058;-69
2023/08/29 11:21:08;;;;;;;1.45;1.38;;;;;;;16.41;100.00;96005.50;5099829;28;20462;-70
2023/08/29 11:23:39;;;;;;;1.23;1.20;;;;;;;17.15;100.00;96028.31;5093942;28;20078;-70